Terminal Aerodrome Forecast
Issued by NWS Shreveport, LA

Home | Current Version | Previous Version | Text Only | Print | Product List | Glossary On
Versions: 1 2 3 4 5 6 7 8 9 10 11 12 13 14 15
000
FTUS44 KSHV 261143
TAFGGG
TAF
KGGG 261143Z 2612/2712 19010KT P6SM BKN020 OVC035
     FM261400 18015G25KT P6SM VCSH OVC020
     FM261600 20017G27KT P6SM -SHRA VCTS OVC025CB
      TEMPO 2617/2621 VRB20G40KT 1SM +TSRA BR OVC015CB
     FM262300 30013G23KT P6SM BKN030
     FM270100 31012KT P6SM SCT030
     FM270400 30005KT P6SM SKC=

USA.gov is the U.S. government's official web portal to all federal, state and local government web resources and services.